WXM80 ListenWXM80 Stop

You find our weather info also at:

UK Metoffice

WeatherCloud

Weather Underground

Northeastern Weather Network

AWEKAS

Citizen Weather Observer Program (CWOP)

HAMweather, WeatherForYou, PWS Weather


Weather Underground History page Text

Daily Summary for April 10, 2017 Units:  Both    English   Metric
« Previous Day
Next Day »
Daily Weekly Monthly Yearly Custom
  High: Low: Average:
Temperature: 73.9 °F /  23.3 °C 45.4 °F /  7.4 °C 58.8 °F /  14.9 °C
Dew Point: 50.7 °F /  10.4 °C 34.5 °F /  1.4 °C 43.2 °F /  6.2 °C
Humidity: 74 % 41 % 57 %
Wind Speed: 10.5 mph /  16.9 km/h - 4.1 mph /  6.6 km/h
Wind Gust: 18.4 mph /  29.6 km/h - -
Wind:- - South
Pressure: 30.19 in /  1022.2 hPa 30.05 in /  1017.5 hPa -
Precipitation: 0.00 in /  0 mm    
Historical Graphs
 
 
Tabular Data for April 10, 2017
Time Temperature Dew Point Pressure Wind Wind Speed Wind Gust Humidity Rainfall Rate (Hourly)
00:03 50.5 °F /  10.3 °C 35.4 °F /  1.9 °C 30.14 in /  1020.5 hPa SSW 5.2 mph /  8.4 km/h 8.1 mph /  13 km/h 56 % 0.00 in /  0 mm
00:08 50.6 °F /  10.3 °C 35.5 °F /  1.9 °C 30.14 in /  1020.5 hPa SW 2.3 mph /  3.7 km/h 5.8 mph /  9.3 km/h 56 % 0.00 in /  0 mm
00:13 50.7 °F /  10.4 °C 35.6 °F /  2 °C 30.13 in /  1020.2 hPa SW 5.5 mph /  8.9 km/h 9.0 mph /  14.5 km/h 56 % 0.00 in /  0 mm
00:18 50.9 °F /  10.5 °C 35.3 °F /  1.8 °C 30.14 in /  1020.5 hPa SW 7.2 mph /  11.6 km/h 9.2 mph /  14.8 km/h 55 % 0.00 in /  0 mm
00:23 51.0 °F /  10.6 °C 34.9 °F /  1.6 °C 30.14 in /  1020.5 hPa WSW 5.9 mph /  9.5 km/h 10.4 mph /  16.7 km/h 54 % 0.00 in /  0 mm
00:28 51.1 °F /  10.6 °C 35.0 °F /  1.7 °C 30.14 in /  1020.5 hPa SW 6.0 mph /  9.7 km/h 8.1 mph /  13 km/h 54 % 0.00 in /  0 mm
00:33 51.3 °F /  10.7 °C 34.7 °F /  1.5 °C 30.14 in /  1020.5 hPa WSW 7.1 mph /  11.4 km/h 11.5 mph /  18.5 km/h 53 % 0.00 in /  0 mm
00:38 51.4 °F /  10.8 °C 34.8 °F /  1.6 °C 30.14 in /  1020.5 hPa SW 5.7 mph /  9.2 km/h 5.8 mph /  9.3 km/h 53 % 0.00 in /  0 mm
00:43 51.5 °F /  10.8 °C 34.9 °F /  1.6 °C 30.14 in /  1020.5 hPa SW 4.7 mph /  7.6 km/h 6.9 mph /  11.1 km/h 53 % 0.00 in /  0 mm
00:48 51.5 °F /  10.8 °C 34.9 °F /  1.6 °C 30.14 in /  1020.5 hPa SW 3.9 mph /  6.3 km/h 5.8 mph /  9.3 km/h 53 % 0.00 in /  0 mm
00:53 51.5 °F /  10.8 °C 34.9 °F /  1.6 °C 30.14 in /  1020.5 hPa SW 3.7 mph /  6 km/h 6.9 mph /  11.1 km/h 53 % 0.00 in /  0 mm
00:58 51.4 °F /  10.8 °C 34.8 °F /  1.6 °C 30.14 in /  1020.5 hPa WSW 3.7 mph /  6 km/h 5.8 mph /  9.3 km/h 53 % 0.00 in /  0 mm
01:03 51.4 °F /  10.8 °C 34.8 °F /  1.6 °C 30.14 in /  1020.5 hPa WSW 3.7 mph /  6 km/h 5.8 mph /  9.3 km/h 53 % 0.00 in /  0 mm
01:08 51.3 °F /  10.7 °C 34.7 °F /  1.5 °C 30.14 in /  1020.5 hPa SW 5.4 mph /  8.7 km/h 10.0 mph /  16.1 km/h 53 % 0.00 in /  0 mm
01:10 51.3 °F /  10.7 °C 34.7 °F /  1.5 °C 30.14 in /  1020.5 hPa SW 4.5 mph /  7.2 km/h 10.4 mph /  16.7 km/h 53 % 0.00 in /  0 mm
01:15 51.2 °F /  10.7 °C 35.1 °F /  1.7 °C 30.14 in /  1020.5 hPa WSW 4.6 mph /  7.4 km/h 10.0 mph /  16.1 km/h 54 % 0.00 in /  0 mm
01:20 51.1 °F /  10.6 °C 34.5 °F /  1.4 °C 30.14 in /  1020.5 hPa WSW 4.4 mph /  7.1 km/h 7.0 mph /  11.3 km/h 53 % 0.00 in /  0 mm
01:25 51.0 °F /  10.6 °C 34.9 °F /  1.6 °C 30.14 in /  1020.5 hPa SW 7.0 mph /  11.3 km/h 11.5 mph /  18.5 km/h 54 % 0.00 in /  0 mm
01:30 51.0 °F /  10.6 °C 34.9 °F /  1.6 °C 30.14 in /  1020.5 hPa WSW 7.6 mph /  12.2 km/h 11.5 mph /  18.5 km/h 54 % 0.00 in /  0 mm
01:35 50.9 °F /  10.5 °C 35.3 °F /  1.8 °C 30.14 in /  1020.5 hPa WSW 6.3 mph /  10.1 km/h 10.4 mph /  16.7 km/h 55 % 0.00 in /  0 mm
01:41 50.9 °F /  10.5 °C 35.3 °F /  1.8 °C 30.14 in /  1020.5 hPa SW 6.4 mph /  10.3 km/h 11.5 mph /  18.5 km/h 55 % 0.00 in /  0 mm
01:46 50.8 °F /  10.4 °C 35.2 °F /  1.8 °C 30.14 in /  1020.5 hPa SSW 5.4 mph /  8.7 km/h 7.0 mph /  11.3 km/h 55 % 0.00 in /  0 mm
01:51 50.7 °F /  10.4 °C 35.6 °F /  2 °C 30.14 in /  1020.5 hPa SSW 5.2 mph /  8.4 km/h 7.0 mph /  11.3 km/h 56 % 0.00 in /  0 mm
01:56 50.5 °F /  10.3 °C 35.4 °F /  1.9 °C 30.14 in /  1020.5 hPa WSW 4.6 mph /  7.4 km/h 8.0 mph /  12.9 km/h 56 % 0.00 in /  0 mm
02:01 50.4 °F /  10.2 °C 35.3 °F /  1.8 °C 30.14 in /  1020.5 hPa SW 4.3 mph /  6.9 km/h 7.0 mph /  11.3 km/h 56 % 0.00 in /  0 mm
02:06 50.1 °F /  10.1 °C 35.4 °F /  1.9 °C 30.14 in /  1020.5 hPa WSW 4.4 mph /  7.1 km/h 8.1 mph /  13 km/h 57 % 0.00 in /  0 mm
02:11 50.0 °F /  10 °C 35.4 °F /  1.9 °C 30.14 in /  1020.5 hPa SW 4.0 mph /  6.4 km/h 8.1 mph /  13 km/h 57 % 0.00 in /  0 mm
02:16 49.9 °F /  9.9 °C 35.7 °F /  2.1 °C 30.14 in /  1020.5 hPa SW 2.9 mph /  4.7 km/h 4.0 mph /  6.4 km/h 58 % 0.00 in /  0 mm
02:21 49.8 °F /  9.9 °C 35.6 °F /  2 °C 30.14 in /  1020.5 hPa WSW 2.2 mph /  3.5 km/h 3.5 mph /  5.6 km/h 58 % 0.00 in /  0 mm
02:26 49.7 °F /  9.8 °C 35.5 °F /  1.9 °C 30.14 in /  1020.5 hPa SW 2.9 mph /  4.7 km/h 4.6 mph /  7.4 km/h 58 % 0.00 in /  0 mm
02:31 49.6 °F /  9.8 °C 35.8 °F /  2.1 °C 30.14 in /  1020.5 hPa SW 1.1 mph /  1.8 km/h 3.5 mph /  5.6 km/h 59 % 0.00 in /  0 mm
02:36 49.5 °F /  9.7 °C 35.8 °F /  2.1 °C 30.14 in /  1020.5 hPa SW 0.2 mph /  0.3 km/h 1.2 mph /  1.9 km/h 59 % 0.00 in /  0 mm
02:41 49.3 °F /  9.6 °C 35.6 °F /  2 °C 30.14 in /  1020.5 hPa SW 1.1 mph /  1.8 km/h 2.3 mph /  3.7 km/h 59 % 0.00 in /  0 mm
02:46 49.1 °F /  9.5 °C 35.4 °F /  1.9 °C 30.14 in /  1020.5 hPa Calm   1.2 mph /  1.9 km/h 59 % 0.00 in /  0 mm
02:51 49.0 °F /  9.4 °C 35.7 °F /  2.1 °C 30.14 in /  1020.5 hPa SW 0.4 mph /  0.6 km/h 1.2 mph /  1.9 km/h 60 % 0.00 in /  0 mm
02:56 48.8 °F /  9.3 °C 35.9 °F /  2.2 °C 30.14 in /  1020.5 hPa SW 1.5 mph /  2.4 km/h 3.5 mph /  5.6 km/h 61 % 0.00 in /  0 mm
03:01 48.4 °F /  9.1 °C 36.0 °F /  2.2 °C 30.14 in /  1020.5 hPa SW 1.1 mph /  1.8 km/h 2.3 mph /  3.7 km/h 62 % 0.00 in /  0 mm
03:06 48.1 °F /  8.9 °C 36.1 °F /  2.3 °C 30.15 in /  1020.9 hPa SSW 0.7 mph /  1.1 km/h 3.5 mph /  5.6 km/h 63 % 0.00 in /  0 mm
03:11 47.9 °F /  8.8 °C 36.3 °F /  2.4 °C 30.15 in /  1020.9 hPa SSW 0.1 mph /  0.2 km/h 2.3 mph /  3.7 km/h 64 % 0.00 in /  0 mm
03:16 47.9 °F /  8.8 °C 36.3 °F /  2.4 °C 30.15 in /  1020.9 hPa SSW 1.2 mph /  1.9 km/h 3.5 mph /  5.6 km/h 64 % 0.00 in /  0 mm
03:21 47.8 °F /  8.8 °C 36.6 °F /  2.6 °C 30.15 in /  1020.9 hPa Calm   1.2 mph /  1.9 km/h 65 % 0.00 in /  0 mm
03:26 47.7 °F /  8.7 °C 36.5 °F /  2.5 °C 30.15 in /  1020.9 hPa Calm   2.3 mph /  3.7 km/h 65 % 0.00 in /  0 mm
03:31 47.5 °F /  8.6 °C 36.3 °F /  2.4 °C 30.15 in /  1020.9 hPa SSW 0.4 mph /  0.6 km/h 1.2 mph /  1.9 km/h 65 % 0.00 in /  0 mm
03:36 47.4 °F /  8.6 °C 36.6 °F /  2.6 °C 30.15 in /  1020.9 hPa Calm   1.2 mph /  1.9 km/h 66 % 0.00 in /  0 mm
03:38 47.3 °F /  8.5 °C 36.5 °F /  2.5 °C 30.15 in /  1020.9 hPa SSW 1.8 mph /  2.9 km/h 4.0 mph /  6.4 km/h 66 % 0.00 in /  0 mm
03:43 47.2 °F /  8.4 °C 36.8 °F /  2.7 °C 30.15 in /  1020.9 hPa SW 3.2 mph /  5.1 km/h 6.0 mph /  9.7 km/h 67 % 0.00 in /  0 mm
03:48 47.0 °F /  8.3 °C 36.6 °F /  2.6 °C 30.15 in /  1020.9 hPa SW 0.9 mph /  1.4 km/h 3.5 mph /  5.6 km/h 67 % 0.00 in /  0 mm
03:53 46.9 °F /  8.3 °C 36.9 °F /  2.7 °C 30.15 in /  1020.9 hPa SSW 2.7 mph /  4.3 km/h 3.5 mph /  5.6 km/h 68 % 0.00 in /  0 mm
03:58 46.9 °F /  8.3 °C 36.9 °F /  2.7 °C 30.16 in /  1021.2 hPa SW 2.1 mph /  3.4 km/h 3.5 mph /  5.6 km/h 68 % 0.00 in /  0 mm
04:03 46.8 °F /  8.2 °C 36.8 °F /  2.7 °C 30.16 in /  1021.2 hPa SSW 2.0 mph /  3.2 km/h 4.6 mph /  7.4 km/h 68 % 0.00 in /  0 mm
04:08 46.8 °F /  8.2 °C 37.2 °F /  2.9 °C 30.16 in /  1021.2 hPa SSW 0.7 mph /  1.1 km/h 2.3 mph /  3.7 km/h 69 % 0.00 in /  0 mm
04:14 46.9 °F /  8.3 °C 37.3 °F /  2.9 °C 30.15 in /  1020.9 hPa SSW 1.0 mph /  1.6 km/h 3.5 mph /  5.6 km/h 69 % 0.00 in /  0 mm
04:19 46.8 °F /  8.2 °C 37.2 °F /  2.9 °C 30.16 in /  1021.2 hPa SSW 1.3 mph /  2.1 km/h 2.3 mph /  3.7 km/h 69 % 0.00 in /  0 mm
04:24 46.8 °F /  8.2 °C 37.5 °F /  3.1 °C 30.16 in /  1021.2 hPa SSW 1.9 mph /  3.1 km/h 3.5 mph /  5.6 km/h 70 % 0.00 in /  0 mm
04:29 46.8 °F /  8.2 °C 37.5 °F /  3.1 °C 30.16 in /  1021.2 hPa SSW 2.5 mph /  4 km/h 3.5 mph /  5.6 km/h 70 % 0.00 in /  0 mm
04:34 46.7 °F /  8.2 °C 37.8 °F /  3.2 °C 30.16 in /  1021.2 hPa SSW 1.2 mph /  1.9 km/h 3.5 mph /  5.6 km/h 71 % 0.00 in /  0 mm
04:39 46.7 °F /  8.2 °C 37.8 °F /  3.2 °C 30.16 in /  1021.2 hPa SSW 2.1 mph /  3.4 km/h 4.0 mph /  6.4 km/h 71 % 0.00 in /  0 mm
04:44 46.6 °F /  8.1 °C 37.7 °F /  3.2 °C 30.16 in /  1021.2 hPa SSW 2.1 mph /  3.4 km/h 4.0 mph /  6.4 km/h 71 % 0.00 in /  0 mm
04:49 46.5 °F /  8.1 °C 38.0 °F /  3.3 °C 30.17 in /  1021.6 hPa SSW 2.9 mph /  4.7 km/h 3.5 mph /  5.6 km/h 72 % 0.00 in /  0 mm
04:54 46.5 °F /  8.1 °C 38.0 °F /  3.3 °C 30.17 in /  1021.6 hPa South 2.5 mph /  4 km/h 3.5 mph /  5.6 km/h 72 % 0.00 in /  0 mm
04:59 46.5 °F /  8.1 °C 38.0 °F /  3.3 °C 30.17 in /  1021.6 hPa South 1.8 mph /  2.9 km/h 3.5 mph /  5.6 km/h 72 % 0.00 in /  0 mm
05:04 46.4 °F /  8 °C 37.9 °F /  3.3 °C 30.17 in /  1021.6 hPa South 1.5 mph /  2.4 km/h 3.5 mph /  5.6 km/h 72 % 0.00 in /  0 mm
05:09 46.4 °F /  8 °C 37.9 °F /  3.3 °C 30.17 in /  1021.6 hPa South 1.2 mph /  1.9 km/h 2.3 mph /  3.7 km/h 72 % 0.00 in /  0 mm
05:14 46.3 °F /  7.9 °C 38.1 °F /  3.4 °C 30.17 in /  1021.6 hPa South 1.0 mph /  1.6 km/h 3.5 mph /  5.6 km/h 73 % 0.00 in /  0 mm
05:19 46.2 °F /  7.9 °C 37.7 °F /  3.2 °C 30.17 in /  1021.6 hPa South 1.2 mph /  1.9 km/h 2.3 mph /  3.7 km/h 72 % 0.00 in /  0 mm
05:24 46.1 °F /  7.8 °C 37.6 °F /  3.1 °C 30.16 in /  1021.2 hPa South 0.8 mph /  1.3 km/h 2.0 mph /  3.2 km/h 72 % 0.00 in /  0 mm
05:29 46.0 °F /  7.8 °C 37.5 °F /  3.1 °C 30.16 in /  1021.2 hPa South 0.9 mph /  1.4 km/h 2.3 mph /  3.7 km/h 72 % 0.00 in /  0 mm
05:34 45.8 °F /  7.7 °C 37.6 °F /  3.1 °C 30.16 in /  1021.2 hPa South 0.6 mph /  1 km/h 2.3 mph /  3.7 km/h 73 % 0.00 in /  0 mm
05:35 45.9 °F /  7.7 °C 37.7 °F /  3.2 °C 30.16 in /  1021.2 hPa South 1.2 mph /  1.9 km/h 2.3 mph /  3.7 km/h 73 % 0.00 in /  0 mm
05:40 45.8 °F /  7.7 °C 37.6 °F /  3.1 °C 30.16 in /  1021.2 hPa South 1.7 mph /  2.7 km/h 3.5 mph /  5.6 km/h 73 % 0.00 in /  0 mm
05:45 45.6 °F /  7.6 °C 37.4 °F /  3 °C 30.17 in /  1021.6 hPa South 1.2 mph /  1.9 km/h 3.5 mph /  5.6 km/h 73 % 0.00 in /  0 mm
05:50 45.5 °F /  7.5 °C 37.7 °F /  3.2 °C 30.16 in /  1021.2 hPa South 2.5 mph /  4 km/h 3.5 mph /  5.6 km/h 74 % 0.00 in /  0 mm
05:55 45.4 °F /  7.4 °C 37.6 °F /  3.1 °C 30.17 in /  1021.6 hPa SSW 3.2 mph /  5.1 km/h 3.5 mph /  5.6 km/h 74 % 0.00 in /  0 mm
06:00 45.4 °F /  7.4 °C 37.6 °F /  3.1 °C 30.17 in /  1021.6 hPa SSW 1.9 mph /  3.1 km/h 3.5 mph /  5.6 km/h 74 % 0.00 in /  0 mm
06:05 45.4 °F /  7.4 °C 37.6 °F /  3.1 °C 30.17 in /  1021.6 hPa SSW 1.1 mph /  1.8 km/h 3.0 mph /  4.8 km/h 74 % 0.00 in /  0 mm
06:10 45.4 °F /  7.4 °C 37.6 °F /  3.1 °C 30.17 in /  1021.6 hPa SSW 2.3 mph /  3.7 km/h 3.5 mph /  5.6 km/h 74 % 0.00 in /  0 mm
06:15 45.5 °F /  7.5 °C 37.7 °F /  3.2 °C 30.17 in /  1021.6 hPa SSW 0.5 mph /  0.8 km/h 2.0 mph /  3.2 km/h 74 % 0.00 in /  0 mm
06:20 45.6 °F /  7.6 °C 37.4 °F /  3 °C 30.18 in /  1021.9 hPa SW 1.3 mph /  2.1 km/h 3.0 mph /  4.8 km/h 73 % 0.00 in /  0 mm
06:25 45.7 °F /  7.6 °C 37.5 °F /  3.1 °C 30.17 in /  1021.6 hPa SSW 1.2 mph /  1.9 km/h 3.5 mph /  5.6 km/h 73 % 0.00 in /  0 mm
06:30 45.9 °F /  7.7 °C 37.7 °F /  3.2 °C 30.18 in /  1021.9 hPa SW 3.0 mph /  4.8 km/h 4.6 mph /  7.4 km/h 73 % 0.00 in /  0 mm
06:35 46.0 °F /  7.8 °C 37.5 °F /  3.1 °C 30.18 in /  1021.9 hPa SSW 2.0 mph /  3.2 km/h 3.5 mph /  5.6 km/h 72 % 0.00 in /  0 mm
06:40 46.2 °F /  7.9 °C 37.7 °F /  3.2 °C 30.18 in /  1021.9 hPa SW 4.3 mph /  6.9 km/h 6.9 mph /  11.1 km/h 72 % 0.00 in /  0 mm
06:45 46.5 °F /  8.1 °C 38.0 °F /  3.3 °C 30.18 in /  1021.9 hPa SSW 3.2 mph /  5.1 km/h 5.0 mph /  8 km/h 72 % 0.00 in /  0 mm
06:50 46.9 °F /  8.3 °C 38.0 °F /  3.3 °C 30.18 in /  1021.9 hPa SW 4.7 mph /  7.6 km/h 4.7 mph /  7.6 km/h 71 % 0.00 in /  0 mm
06:52 47.1 °F /  8.4 °C 38.2 °F /  3.4 °C 30.18 in /  1021.9 hPa WSW 3.2 mph /  5.1 km/h 5.8 mph /  9.3 km/h 71 % 0.00 in /  0 mm
06:57 47.6 °F /  8.7 °C 38.3 °F /  3.5 °C 30.18 in /  1021.9 hPa SW 3.7 mph /  6 km/h 5.8 mph /  9.3 km/h 70 % 0.00 in /  0 mm
07:02 48.0 °F /  8.9 °C 38.7 °F /  3.7 °C 30.19 in /  1022.2 hPa SW 3.6 mph /  5.8 km/h 4.0 mph /  6.4 km/h 70 % 0.00 in /  0 mm
07:07 48.5 °F /  9.2 °C 38.8 °F /  3.8 °C 30.18 in /  1021.9 hPa SW 3.5 mph /  5.6 km/h 5.8 mph /  9.3 km/h 69 % 0.00 in /  0 mm
07:12 48.9 °F /  9.4 °C 38.8 °F /  3.8 °C 30.18 in /  1021.9 hPa SW 3.4 mph /  5.5 km/h 5.8 mph /  9.3 km/h 68 % 0.00 in /  0 mm
07:17 49.3 °F /  9.6 °C 39.2 °F /  4 °C 30.19 in /  1022.2 hPa SW 3.6 mph /  5.8 km/h 5.0 mph /  8 km/h 68 % 0.00 in /  0 mm
07:22 49.7 °F /  9.8 °C 39.2 °F /  4 °C 30.18 in /  1021.9 hPa SSW 4.0 mph /  6.4 km/h 6.9 mph /  11.1 km/h 67 % 0.00 in /  0 mm
07:27 50.1 °F /  10.1 °C 39.6 °F /  4.2 °C 30.18 in /  1021.9 hPa SSW 5.5 mph /  8.9 km/h 8.0 mph /  12.9 km/h 67 % 0.00 in /  0 mm
07:32 50.5 °F /  10.3 °C 39.6 °F /  4.2 °C 30.18 in /  1021.9 hPa SSW 4.5 mph /  7.2 km/h 5.8 mph /  9.3 km/h 66 % 0.00 in /  0 mm
07:37 50.8 °F /  10.4 °C 39.1 °F /  3.9 °C 30.18 in /  1021.9 hPa SW 5.6 mph /  9 km/h 8.1 mph /  13 km/h 64 % 0.00 in /  0 mm
07:42 51.1 °F /  10.6 °C 39.3 °F /  4.1 °C 30.18 in /  1021.9 hPa SSW 4.4 mph /  7.1 km/h 7.0 mph /  11.3 km/h 64 % 0.00 in /  0 mm
07:47 51.4 °F /  10.8 °C 39.2 °F /  4 °C 30.18 in /  1021.9 hPa South 4.3 mph /  6.9 km/h 5.0 mph /  8 km/h 63 % 0.00 in /  0 mm
07:52 51.9 °F /  11.1 °C 39.7 °F /  4.3 °C 30.18 in /  1021.9 hPa SSW 4.1 mph /  6.6 km/h 8.1 mph /  13 km/h 63 % 0.00 in /  0 mm
07:57 52.2 °F /  11.2 °C 39.6 °F /  4.2 °C 30.19 in /  1022.2 hPa SSW 6.1 mph /  9.8 km/h 8.1 mph /  13 km/h 62 % 0.00 in /  0 mm
08:02 52.8 °F /  11.6 °C 39.7 °F /  4.3 °C 30.18 in /  1021.9 hPa SW 2.0 mph /  3.2 km/h 8.0 mph /  12.9 km/h 61 % 0.00 in /  0 mm
08:07 53.4 °F /  11.9 °C 40.3 °F /  4.6 °C 30.18 in /  1021.9 hPa SW 2.1 mph /  3.4 km/h 5.0 mph /  8 km/h 61 % 0.00 in /  0 mm
08:12 54.0 °F /  12.2 °C 40.0 °F /  4.4 °C 30.18 in /  1021.9 hPa SSW 2.0 mph /  3.2 km/h 8.0 mph /  12.9 km/h 59 % 0.00 in /  0 mm
08:17 54.7 °F /  12.6 °C 41.0 °F /  5 °C 30.18 in /  1021.9 hPa SW 3.0 mph /  4.8 km/h 7.0 mph /  11.3 km/h 60 % 0.00 in /  0 mm
08:22 55.3 °F /  12.9 °C 40.4 °F /  4.7 °C 30.18 in /  1021.9 hPa SW 6.0 mph /  9.7 km/h 8.0 mph /  12.9 km/h 57 % 0.00 in /  0 mm
08:27 55.9 °F /  13.3 °C 40.4 °F /  4.7 °C 30.18 in /  1021.9 hPa SW 3.4 mph /  5.5 km/h 9.2 mph /  14.8 km/h 56 % 0.00 in /  0 mm
08:32 56.3 °F /  13.5 °C 40.8 °F /  4.9 °C 30.17 in /  1021.6 hPa SW 6.0 mph /  9.7 km/h 8.0 mph /  12.9 km/h 56 % 0.00 in /  0 mm
08:37 56.8 °F /  13.8 °C 41.3 °F /  5.2 °C 30.18 in /  1021.9 hPa SW 2.8 mph /  4.5 km/h 6.9 mph /  11.1 km/h 56 % 0.00 in /  0 mm
08:42 57.2 °F /  14 °C 40.7 °F /  4.8 °C 30.18 in /  1021.9 hPa SW 3.0 mph /  4.8 km/h 8.0 mph /  12.9 km/h 54 % 0.00 in /  0 mm
08:47 57.8 °F /  14.3 °C 40.8 °F /  4.9 °C 30.18 in /  1021.9 hPa SW 5.0 mph /  8 km/h 7.0 mph /  11.3 km/h 53 % 0.00 in /  0 mm
08:52 58.4 °F /  14.7 °C 41.3 °F /  5.2 °C 30.18 in /  1021.9 hPa SW 3.0 mph /  4.8 km/h 10.0 mph /  16.1 km/h 53 % 0.00 in /  0 mm
08:57 59.0 °F /  15 °C 41.4 °F /  5.2 °C 30.18 in /  1021.9 hPa WSW 4.4 mph /  7.1 km/h 7.0 mph /  11.3 km/h 52 % 0.00 in /  0 mm
09:02 59.5 °F /  15.3 °C 41.9 °F /  5.5 °C 30.18 in /  1021.9 hPa SW 2.4 mph /  3.9 km/h 3.5 mph /  5.6 km/h 52 % 0.00 in /  0 mm
09:07 60.0 °F /  15.6 °C 42.3 °F /  5.7 °C 30.18 in /  1021.9 hPa SW 3.4 mph /  5.5 km/h 4.6 mph /  7.4 km/h 52 % 0.00 in /  0 mm
09:12 60.6 °F /  15.9 °C 42.4 °F /  5.8 °C 30.18 in /  1021.9 hPa SW 3.2 mph /  5.1 km/h 5.0 mph /  8 km/h 51 % 0.00 in /  0 mm
09:17 61.2 °F /  16.2 °C 42.9 °F /  6.1 °C 30.18 in /  1021.9 hPa WSW 2.2 mph /  3.5 km/h 4.6 mph /  7.4 km/h 51 % 0.00 in /  0 mm
09:23 61.7 °F /  16.5 °C 45.4 °F /  7.4 °C 30.18 in /  1021.9 hPa East 1.5 mph /  2.4 km/h 3.5 mph /  5.6 km/h 55 % 0.00 in /  0 mm
09:28 62.0 °F /  16.7 °C 45.2 °F /  7.3 °C 30.18 in /  1021.9 hPa ENE 1.2 mph /  1.9 km/h 2.3 mph /  3.7 km/h 54 % 0.00 in /  0 mm
09:33 61.8 °F /  16.6 °C 45.9 °F /  7.7 °C 30.18 in /  1021.9 hPa ENE 0.1 mph /  0.2 km/h 1.2 mph /  1.9 km/h 56 % 0.00 in /  0 mm
09:38 62.0 °F /  16.7 °C 45.6 °F /  7.6 °C 30.18 in /  1021.9 hPa ENE 1.2 mph /  1.9 km/h 2.3 mph /  3.7 km/h 55 % 0.00 in /  0 mm
09:43 61.3 °F /  16.3 °C 44.0 °F /  6.7 °C 30.18 in /  1021.9 hPa NE 1.0 mph /  1.6 km/h 3.5 mph /  5.6 km/h 53 % 0.00 in /  0 mm
09:48 60.8 °F /  16 °C 45.5 °F /  7.5 °C 30.18 in /  1021.9 hPa NE 1.2 mph /  1.9 km/h 2.3 mph /  3.7 km/h 57 % 0.00 in /  0 mm
09:53 60.4 °F /  15.8 °C 45.1 °F /  7.3 °C 30.18 in /  1021.9 hPa NNE 1.3 mph /  2.1 km/h 2.3 mph /  3.7 km/h 57 % 0.00 in /  0 mm
09:58 60.0 °F /  15.6 °C 46.5 °F /  8.1 °C 30.18 in /  1021.9 hPa NNE 0.7 mph /  1.1 km/h 3.5 mph /  5.6 km/h 61 % 0.00 in /  0 mm
10:03 59.8 °F /  15.4 °C 46.7 °F /  8.2 °C 30.18 in /  1021.9 hPa NE 1.5 mph /  2.4 km/h 3.5 mph /  5.6 km/h 62 % 0.00 in /  0 mm
10:08 59.6 °F /  15.3 °C 44.3 °F /  6.8 °C 30.18 in /  1021.9 hPa ENE 2.8 mph /  4.5 km/h 4.6 mph /  7.4 km/h 57 % 0.00 in /  0 mm
10:13 59.3 °F /  15.2 °C 44.5 °F /  6.9 °C 30.18 in /  1021.9 hPa ENE 2.4 mph /  3.9 km/h 3.5 mph /  5.6 km/h 58 % 0.00 in /  0 mm
10:18 58.8 °F /  14.9 °C 44.0 °F /  6.7 °C 30.18 in /  1021.9 hPa ENE 2.6 mph /  4.2 km/h 3.5 mph /  5.6 km/h 58 % 0.00 in /  0 mm
10:23 58.6 °F /  14.8 °C 43.9 °F /  6.6 °C 30.17 in /  1021.6 hPa NE 1.3 mph /  2.1 km/h 3.5 mph /  5.6 km/h 58 % 0.00 in /  0 mm
10:28 58.2 °F /  14.6 °C 44.4 °F /  6.9 °C 30.17 in /  1021.6 hPa ENE 3.1 mph /  5 km/h 3.5 mph /  5.6 km/h 60 % 0.00 in /  0 mm
10:34 57.6 °F /  14.2 °C 43.8 °F /  6.6 °C 30.17 in /  1021.6 hPa ENE 1.9 mph /  3.1 km/h 3.5 mph /  5.6 km/h 60 % 0.00 in /  0 mm
10:39 57.4 °F /  14.1 °C 44.5 °F /  6.9 °C 30.17 in /  1021.6 hPa NE 0.9 mph /  1.4 km/h 2.3 mph /  3.7 km/h 62 % 0.00 in /  0 mm
10:44 57.7 °F /  14.3 °C 45.6 °F /  7.6 °C 30.17 in /  1021.6 hPa NNE 2.8 mph /  4.5 km/h 3.5 mph /  5.6 km/h 64 % 0.00 in /  0 mm
10:49 58.7 °F /  14.8 °C 45.7 °F /  7.6 °C 30.16 in /  1021.2 hPa NE 1.1 mph /  1.8 km/h 3.0 mph /  4.8 km/h 62 % 0.00 in /  0 mm
10:54 58.8 °F /  14.9 °C 44.0 °F /  6.7 °C 30.17 in /  1021.6 hPa NNE 3.5 mph /  5.6 km/h 3.5 mph /  5.6 km/h 58 % 0.00 in /  0 mm
10:59 59.5 °F /  15.3 °C 43.8 °F /  6.6 °C 30.16 in /  1021.2 hPa ENE 2.3 mph /  3.7 km/h 3.5 mph /  5.6 km/h 56 % 0.00 in /  0 mm
11:04 59.7 °F /  15.4 °C 45.3 °F /  7.4 °C 30.16 in /  1021.2 hPa NNE 3.5 mph /  5.6 km/h 5.0 mph /  8 km/h 59 % 0.00 in /  0 mm
11:09 60.3 °F /  15.7 °C 44.5 °F /  6.9 °C 30.16 in /  1021.2 hPa ENE 3.1 mph /  5 km/h 3.5 mph /  5.6 km/h 56 % 0.00 in /  0 mm
11:14 60.2 °F /  15.7 °C 43.0 °F /  6.1 °C 30.16 in /  1021.2 hPa ENE 3.7 mph /  6 km/h 4.0 mph /  6.4 km/h 53 % 0.00 in /  0 mm
11:19 59.6 °F /  15.3 °C 43.9 °F /  6.6 °C 30.15 in /  1020.9 hPa NE 1.1 mph /  1.8 km/h 3.5 mph /  5.6 km/h 56 % 0.00 in /  0 mm
11:24 60.1 °F /  15.6 °C 44.3 °F /  6.8 °C 30.15 in /  1020.9 hPa NNE 1.5 mph /  2.4 km/h 3.5 mph /  5.6 km/h 56 % 0.00 in /  0 mm
11:29 61.3 °F /  16.3 °C 45.5 °F /  7.5 °C 30.15 in /  1020.9 hPa NNE 2.6 mph /  4.2 km/h 3.5 mph /  5.6 km/h 56 % 0.00 in /  0 mm
11:34 62.5 °F /  16.9 °C 45.6 °F /  7.6 °C 30.15 in /  1020.9 hPa NNE 3.5 mph /  5.6 km/h 6.9 mph /  11.1 km/h 54 % 0.00 in /  0 mm
11:40 63.6 °F /  17.6 °C 46.1 °F /  7.8 °C 30.15 in /  1020.9 hPa NE 1.4 mph /  2.3 km/h 3.5 mph /  5.6 km/h 53 % 0.00 in /  0 mm
11:45 63.6 °F /  17.6 °C 44.6 °F /  7 °C 30.15 in /  1020.9 hPa NE 1.2 mph /  1.9 km/h 4.0 mph /  6.4 km/h 50 % 0.00 in /  0 mm
11:49 63.2 °F /  17.3 °C 42.6 °F /  5.9 °C 30.15 in /  1020.9 hPa ENE 2.6 mph /  4.2 km/h 4.6 mph /  7.4 km/h 47 % 0.00 in /  0 mm
11:55 61.6 °F /  16.4 °C 42.8 °F /  6 °C 30.15 in /  1020.9 hPa ENE 3.9 mph /  6.3 km/h 5.0 mph /  8 km/h 50 % 0.00 in /  0 mm
12:00 60.8 °F /  16 °C 43.6 °F /  6.4 °C 30.15 in /  1020.9 hPa ENE 4.5 mph /  7.2 km/h 7.0 mph /  11.3 km/h 53 % 0.00 in /  0 mm
12:01 60.6 °F /  15.9 °C 43.9 °F /  6.6 °C 30.15 in /  1020.9 hPa ENE 5.8 mph /  9.3 km/h 8.1 mph /  13 km/h 54 % 0.00 in /  0 mm
12:06 59.1 °F /  15.1 °C 43.9 °F /  6.6 °C 30.15 in /  1020.9 hPa ENE 3.1 mph /  5 km/h 3.5 mph /  5.6 km/h 57 % 0.00 in /  0 mm
12:11 58.2 °F /  14.6 °C 44.8 °F /  7.1 °C 30.15 in /  1020.9 hPa ENE 3.7 mph /  6 km/h 6.9 mph /  11.1 km/h 61 % 0.00 in /  0 mm
12:15 58.0 °F /  14.4 °C 45.5 °F /  7.5 °C 30.15 in /  1020.9 hPa ENE 3.5 mph /  5.6 km/h 5.8 mph /  9.3 km/h 63 % 0.00 in /  0 mm
12:20 57.7 °F /  14.3 °C 45.2 °F /  7.3 °C 30.15 in /  1020.9 hPa ENE 3.3 mph /  5.3 km/h 4.0 mph /  6.4 km/h 63 % 0.00 in /  0 mm
12:25 58.0 °F /  14.4 °C 45.5 °F /  7.5 °C 30.15 in /  1020.9 hPa NNE 3.8 mph /  6.1 km/h 6.9 mph /  11.1 km/h 63 % 0.00 in /  0 mm
12:30 58.4 °F /  14.7 °C 46.7 °F /  8.2 °C 30.15 in /  1020.9 hPa NNE 3.5 mph /  5.6 km/h 5.8 mph /  9.3 km/h 65 % 0.00 in /  0 mm
12:35 59.6 °F /  15.3 °C 47.0 °F /  8.3 °C 30.14 in /  1020.5 hPa NNE 2.6 mph /  4.2 km/h 4.6 mph /  7.4 km/h 63 % 0.00 in /  0 mm
12:40 60.3 °F /  15.7 °C 47.6 °F /  8.7 °C 30.14 in /  1020.5 hPa ENE 1.8 mph /  2.9 km/h 3.5 mph /  5.6 km/h 63 % 0.00 in /  0 mm
12:45 60.3 °F /  15.7 °C 46.8 °F /  8.2 °C 30.14 in /  1020.5 hPa ENE 3.7 mph /  6 km/h 7.0 mph /  11.3 km/h 61 % 0.00 in /  0 mm
12:50 59.4 °F /  15.2 °C 46.4 °F /  8 °C 30.14 in /  1020.5 hPa NE 2.8 mph /  4.5 km/h 3.5 mph /  5.6 km/h 62 % 0.00 in /  0 mm
12:55 59.0 °F /  15 °C 46.8 °F /  8.2 °C 30.13 in /  1020.2 hPa NE 1.4 mph /  2.3 km/h 3.5 mph /  5.6 km/h 64 % 0.00 in /  0 mm
12:59 58.9 °F /  14.9 °C 47.2 °F /  8.4 °C 30.13 in /  1020.2 hPa NE 2.3 mph /  3.7 km/h 4.6 mph /  7.4 km/h 65 % 0.00 in /  0 mm
13:04 59.5 °F /  15.3 °C 47.7 °F /  8.7 °C 30.13 in /  1020.2 hPa NNE 1.5 mph /  2.4 km/h 3.5 mph /  5.6 km/h 65 % 0.00 in /  0 mm
13:09 60.4 °F /  15.8 °C 48.6 °F /  9.2 °C 30.12 in /  1019.9 hPa NNE 1.1 mph /  1.8 km/h 3.5 mph /  5.6 km/h 65 % 0.00 in /  0 mm
13:14 61.8 °F /  16.6 °C 48.2 °F /  9 °C 30.11 in /  1019.5 hPa WSW 4.2 mph /  6.8 km/h 9.2 mph /  14.8 km/h 61 % 0.00 in /  0 mm
13:19 63.9 °F /  17.7 °C 47.4 °F /  8.6 °C 30.11 in /  1019.5 hPa SW 3.2 mph /  5.1 km/h 6.9 mph /  11.1 km/h 55 % 0.00 in /  0 mm
13:25 66.2 °F /  19 °C 48.6 °F /  9.2 °C 30.11 in /  1019.5 hPa South 5.3 mph /  8.5 km/h 10.4 mph /  16.7 km/h 53 % 0.00 in /  0 mm
13:30 68.3 °F /  20.2 °C 48.4 °F /  9.1 °C 30.11 in /  1019.5 hPa SSW 4.4 mph /  7.1 km/h 6.9 mph /  11.1 km/h 49 % 0.00 in /  0 mm
13:35 69.7 °F /  20.9 °C 48.6 °F /  9.2 °C 30.11 in /  1019.5 hPa WSW 4.1 mph /  6.6 km/h 11.0 mph /  17.7 km/h 47 % 0.00 in /  0 mm
13:40 70.7 °F /  21.5 °C 48.3 °F /  9.1 °C 30.11 in /  1019.5 hPa SSW 5.0 mph /  8 km/h 11.5 mph /  18.5 km/h 45 % 0.00 in /  0 mm
13:45 71.5 °F /  21.9 °C 49.6 °F /  9.8 °C 30.11 in /  1019.5 hPa SSW 2.9 mph /  4.7 km/h 9.2 mph /  14.8 km/h 46 % 0.00 in /  0 mm
13:50 71.9 °F /  22.2 °C 48.8 °F /  9.3 °C 30.11 in /  1019.5 hPa South 3.0 mph /  4.8 km/h 6.9 mph /  11.1 km/h 44 % 0.00 in /  0 mm
13:55 72.2 °F /  22.3 °C 49.1 °F /  9.5 °C 30.10 in /  1019.2 hPa South 1.7 mph /  2.7 km/h 4.6 mph /  7.4 km/h 44 % 0.00 in /  0 mm
14:00 72.5 °F /  22.5 °C 48.7 °F /  9.3 °C 30.10 in /  1019.2 hPa SSW 4.6 mph /  7.4 km/h 10.4 mph /  16.7 km/h 43 % 0.00 in /  0 mm
14:05 72.8 °F /  22.7 °C 50.2 °F /  10.1 °C 30.10 in /  1019.2 hPa SSW 2.8 mph /  4.5 km/h 5.8 mph /  9.3 km/h 45 % 0.00 in /  0 mm
14:10 72.8 °F /  22.7 °C 49.0 °F /  9.4 °C 30.10 in /  1019.2 hPa SSW 2.4 mph /  3.9 km/h 5.0 mph /  8 km/h 43 % 0.00 in /  0 mm
14:15 72.6 °F /  22.6 °C 48.8 °F /  9.3 °C 30.10 in /  1019.2 hPa South 4.4 mph /  7.1 km/h 8.1 mph /  13 km/h 43 % 0.00 in /  0 mm
14:20 72.5 °F /  22.5 °C 50.5 °F /  10.3 °C 30.10 in /  1019.2 hPa South 2.9 mph /  4.7 km/h 5.8 mph /  9.3 km/h 46 % 0.00 in /  0 mm
14:25 72.7 °F /  22.6 °C 50.7 °F /  10.4 °C 30.10 in /  1019.2 hPa SSW 5.4 mph /  8.7 km/h 8.0 mph /  12.9 km/h 46 % 0.00 in /  0 mm
14:30 72.8 °F /  22.7 °C 49.6 °F /  9.8 °C 30.09 in /  1018.8 hPa SSW 6.9 mph /  11.1 km/h 11.5 mph /  18.5 km/h 44 % 0.00 in /  0 mm
14:35 73.0 °F /  22.8 °C 49.8 °F /  9.9 °C 30.09 in /  1018.8 hPa WSW 5.2 mph /  8.4 km/h 7.0 mph /  11.3 km/h 44 % 0.00 in /  0 mm
14:40 73.1 °F /  22.8 °C 49.9 °F /  9.9 °C 30.09 in /  1018.8 hPa SSW 3.5 mph /  5.6 km/h 5.8 mph /  9.3 km/h 44 % 0.00 in /  0 mm
14:45 73.4 °F /  23 °C 48.9 °F /  9.4 °C 30.09 in /  1018.8 hPa South 4.4 mph /  7.1 km/h 10.4 mph /  16.7 km/h 42 % 0.00 in /  0 mm
14:50 73.6 °F /  23.1 °C 50.3 °F /  10.2 °C 30.09 in /  1018.8 hPa South 2.7 mph /  4.3 km/h 4.6 mph /  7.4 km/h 44 % 0.00 in /  0 mm
14:56 73.9 °F /  23.3 °C 49.4 °F /  9.7 °C 30.09 in /  1018.8 hPa SSE 2.9 mph /  4.7 km/h 5.8 mph /  9.3 km/h 42 % 0.00 in /  0 mm
15:01 73.9 °F /  23.3 °C 50.6 °F /  10.3 °C 30.09 in /  1018.8 hPa South 6.8 mph /  10.9 km/h 12.7 mph /  20.4 km/h 44 % 0.00 in /  0 mm
15:06 73.2 °F /  22.9 °C 49.4 °F /  9.7 °C 30.08 in /  1018.5 hPa South 5.3 mph /  8.5 km/h 10.4 mph /  16.7 km/h 43 % 0.00 in /  0 mm
15:11 72.6 °F /  22.6 °C 49.4 °F /  9.7 °C 30.08 in /  1018.5 hPa SSE 5.2 mph /  8.4 km/h 9.0 mph /  14.5 km/h 44 % 0.00 in /  0 mm
15:16 72.5 °F /  22.5 °C 49.3 °F /  9.6 °C 30.08 in /  1018.5 hPa South 5.7 mph /  9.2 km/h 10.4 mph /  16.7 km/h 44 % 0.00 in /  0 mm
15:21 72.2 °F /  22.3 °C 49.1 °F /  9.5 °C 30.08 in /  1018.5 hPa SE 4.4 mph /  7.1 km/h 8.0 mph /  12.9 km/h 44 % 0.00 in /  0 mm
15:26 72.1 °F /  22.3 °C 49.0 °F /  9.4 °C 30.07 in /  1018.2 hPa SSE 4.3 mph /  6.9 km/h 8.1 mph /  13 km/h 44 % 0.00 in /  0 mm
15:31 72.2 °F /  22.3 °C 49.7 °F /  9.8 °C 30.07 in /  1018.2 hPa SSE 3.8 mph /  6.1 km/h 6.0 mph /  9.7 km/h 45 % 0.00 in /  0 mm
15:36 72.5 °F /  22.5 °C 49.3 °F /  9.6 °C 30.07 in /  1018.2 hPa SSW 3.8 mph /  6.1 km/h 10.4 mph /  16.7 km/h 44 % 0.00 in /  0 mm
15:41 72.9 °F /  22.7 °C 50.3 °F /  10.2 °C 30.07 in /  1018.2 hPa SSE 4.2 mph /  6.8 km/h 10.4 mph /  16.7 km/h 45 % 0.00 in /  0 mm
15:46 73.2 °F /  22.9 °C 50.6 °F /  10.3 °C 30.07 in /  1018.2 hPa South 6.2 mph /  10 km/h 10.0 mph /  16.1 km/h 45 % 0.00 in /  0 mm
15:51 73.2 °F /  22.9 °C 49.4 °F /  9.7 °C 30.07 in /  1018.2 hPa SSE 7.7 mph /  12.4 km/h 10.4 mph /  16.7 km/h 43 % 0.00 in /  0 mm
15:56 73.3 °F /  22.9 °C 48.8 °F /  9.3 °C 30.07 in /  1018.2 hPa SSW 6.5 mph /  10.5 km/h 11.5 mph /  18.5 km/h 42 % 0.00 in /  0 mm
16:01 73.3 °F /  22.9 °C 48.8 °F /  9.3 °C 30.07 in /  1018.2 hPa South 5.3 mph /  8.5 km/h 10.4 mph /  16.7 km/h 42 % 0.00 in /  0 mm
16:06 73.3 °F /  22.9 °C 48.8 °F /  9.3 °C 30.07 in /  1018.2 hPa SSW 3.1 mph /  5 km/h 5.8 mph /  9.3 km/h 42 % 0.00 in /  0 mm
16:11 73.4 °F /  23 °C 48.3 °F /  9.1 °C 30.07 in /  1018.2 hPa SSW 7.7 mph /  12.4 km/h 16.1 mph /  25.9 km/h 41 % 0.00 in /  0 mm
16:16 73.2 °F /  22.9 °C 48.7 °F /  9.3 °C 30.07 in /  1018.2 hPa SSW 6.2 mph /  10 km/h 10.4 mph /  16.7 km/h 42 % 0.00 in /  0 mm
16:21 73.1 °F /  22.8 °C 48.6 °F /  9.2 °C 30.07 in /  1018.2 hPa SSW 5.9 mph /  9.5 km/h 12.7 mph /  20.4 km/h 42 % 0.00 in /  0 mm
16:26 73.0 °F /  22.8 °C 49.2 °F /  9.6 °C 30.07 in /  1018.2 hPa South 2.6 mph /  4.2 km/h 9.2 mph /  14.8 km/h 43 % 0.00 in /  0 mm
16:31 72.9 °F /  22.7 °C 48.5 °F /  9.2 °C 30.06 in /  1017.8 hPa SSW 6.0 mph /  9.7 km/h 11.5 mph /  18.5 km/h 42 % 0.00 in /  0 mm
16:36 72.7 °F /  22.6 °C 48.3 °F /  9.1 °C 30.06 in /  1017.8 hPa SSW 6.6 mph /  10.6 km/h 11.5 mph /  18.5 km/h 42 % 0.00 in /  0 mm
16:41 72.5 °F /  22.5 °C 47.5 °F /  8.6 °C 30.06 in /  1017.8 hPa South 4.8 mph /  7.7 km/h 9.2 mph /  14.8 km/h 41 % 0.00 in /  0 mm
16:47 72.3 °F /  22.4 °C 48.5 °F /  9.2 °C 30.06 in /  1017.8 hPa South 5.3 mph /  8.5 km/h 9.2 mph /  14.8 km/h 43 % 0.00 in /  0 mm
16:52 72.1 °F /  22.3 °C 48.4 °F /  9.1 °C 30.06 in /  1017.8 hPa SSW 3.6 mph /  5.8 km/h 9.2 mph /  14.8 km/h 43 % 0.00 in /  0 mm
16:57 72.0 °F /  22.2 °C 47.6 °F /  8.7 °C 30.06 in /  1017.8 hPa South 4.5 mph /  7.2 km/h 12.7 mph /  20.4 km/h 42 % 0.00 in /  0 mm
17:02 71.7 °F /  22.1 °C 47.4 °F /  8.6 °C 30.06 in /  1017.8 hPa SSW 4.7 mph /  7.6 km/h 12.7 mph /  20.4 km/h 42 % 0.00 in /  0 mm
17:07 71.5 °F /  21.9 °C 47.8 °F /  8.8 °C 30.06 in /  1017.8 hPa SSW 4.3 mph /  6.9 km/h 12.0 mph /  19.3 km/h 43 % 0.00 in /  0 mm
17:12 71.3 °F /  21.8 °C 47.6 °F /  8.7 °C 30.06 in /  1017.8 hPa SSW 7.4 mph /  11.9 km/h 17.0 mph /  27.4 km/h 43 % 0.00 in /  0 mm
17:17 71.0 °F /  21.7 °C 48.0 °F /  8.9 °C 30.05 in /  1017.5 hPa South 5.0 mph /  8 km/h 10.0 mph /  16.1 km/h 44 % 0.00 in /  0 mm
17:22 70.7 °F /  21.5 °C 47.7 °F /  8.7 °C 30.06 in /  1017.8 hPa South 6.0 mph /  9.7 km/h 12.0 mph /  19.3 km/h 44 % 0.00 in /  0 mm
17:27 70.5 °F /  21.4 °C 48.1 °F /  8.9 °C 30.05 in /  1017.5 hPa South 7.0 mph /  11.3 km/h 12.0 mph /  19.3 km/h 45 % 0.00 in /  0 mm
17:32 70.2 °F /  21.2 °C 47.3 °F /  8.5 °C 30.06 in /  1017.8 hPa South 7.0 mph /  11.3 km/h 12.0 mph /  19.3 km/h 44 % 0.00 in /  0 mm
17:37 70.0 °F /  21.1 °C 47.6 °F /  8.7 °C 30.06 in /  1017.8 hPa SSW 5.0 mph /  8 km/h 14.0 mph /  22.5 km/h 45 % 0.00 in /  0 mm
17:42 69.7 °F /  20.9 °C 47.4 °F /  8.6 °C 30.06 in /  1017.8 hPa SSW 5.0 mph /  8 km/h 9.0 mph /  14.5 km/h 45 % 0.00 in /  0 mm
17:47 69.4 °F /  20.8 °C 47.1 °F /  8.4 °C 30.06 in /  1017.8 hPa SSW 5.0 mph /  8 km/h 12.0 mph /  19.3 km/h 45 % 0.00 in /  0 mm
17:52 69.2 °F /  20.7 °C 47.5 °F /  8.6 °C 30.05 in /  1017.5 hPa SSW 6.0 mph /  9.7 km/h 10.0 mph /  16.1 km/h 46 % 0.00 in /  0 mm
17:57 68.9 °F /  20.5 °C 47.3 °F /  8.5 °C 30.05 in /  1017.5 hPa SW 5.4 mph /  8.7 km/h 10.4 mph /  16.7 km/h 46 % 0.00 in /  0 mm
18:02 68.5 °F /  20.3 °C 46.9 °F /  8.3 °C 30.05 in /  1017.5 hPa SSE 5.5 mph /  8.9 km/h 10.4 mph /  16.7 km/h 46 % 0.00 in /  0 mm
18:07 68.3 °F /  20.2 °C 46.7 °F /  8.2 °C 30.06 in /  1017.8 hPa SW 8.2 mph /  13.2 km/h 12.0 mph /  19.3 km/h 46 % 0.00 in /  0 mm
18:12 67.9 °F /  19.9 °C 46.3 °F /  7.9 °C 30.06 in /  1017.8 hPa SSW 9.0 mph /  14.5 km/h 13.8 mph /  22.2 km/h 46 % 0.00 in /  0 mm
18:17 67.5 °F /  19.7 °C 46.6 °F /  8.1 °C 30.06 in /  1017.8 hPa SW 8.9 mph /  14.3 km/h 15.0 mph /  24.1 km/h 47 % 0.00 in /  0 mm
18:22 67.2 °F /  19.6 °C 46.3 °F /  7.9 °C 30.06 in /  1017.8 hPa SSE 10.5 mph /  16.9 km/h 16.1 mph /  25.9 km/h 47 % 0.00 in /  0 mm
18:27 66.9 °F /  19.4 °C 46.6 °F /  8.1 °C 30.06 in /  1017.8 hPa South 5.3 mph /  8.5 km/h 11.5 mph /  18.5 km/h 48 % 0.00 in /  0 mm
18:32 66.7 °F /  19.3 °C 46.4 °F /  8 °C 30.06 in /  1017.8 hPa South 8.6 mph /  13.8 km/h 14.0 mph /  22.5 km/h 48 % 0.00 in /  0 mm
18:37 66.4 °F /  19.1 °C 46.7 °F /  8.2 °C 30.06 in /  1017.8 hPa SSW 7.8 mph /  12.6 km/h 13.8 mph /  22.2 km/h 49 % 0.00 in /  0 mm
18:42 66.2 °F /  19 °C 46.5 °F /  8.1 °C 30.06 in /  1017.8 hPa SSW 7.6 mph /  12.2 km/h 15.0 mph /  24.1 km/h 49 % 0.00 in /  0 mm
18:47 66.1 °F /  18.9 °C 46.4 °F /  8 °C 30.06 in /  1017.8 hPa South 4.2 mph /  6.8 km/h 8.1 mph /  13 km/h 49 % 0.00 in /  0 mm
18:53 65.9 °F /  18.8 °C 46.2 °F /  7.9 °C 30.06 in /  1017.8 hPa South 6.5 mph /  10.5 km/h 11.5 mph /  18.5 km/h 49 % 0.00 in /  0 mm
18:58 65.7 °F /  18.7 °C 46.0 °F /  7.8 °C 30.06 in /  1017.8 hPa SSW 6.5 mph /  10.5 km/h 9.2 mph /  14.8 km/h 49 % 0.00 in /  0 mm
19:03 65.6 °F /  18.7 °C 45.9 °F /  7.7 °C 30.05 in /  1017.5 hPa SSE 6.1 mph /  9.8 km/h 10.4 mph /  16.7 km/h 49 % 0.00 in /  0 mm
19:08 65.4 °F /  18.6 °C 45.7 °F /  7.6 °C 30.05 in /  1017.5 hPa SSW 9.5 mph /  15.3 km/h 13.8 mph /  22.2 km/h 49 % 0.00 in /  0 mm
19:13 65.2 °F /  18.4 °C 45.5 °F /  7.5 °C 30.05 in /  1017.5 hPa SW 9.4 mph /  15.1 km/h 15.0 mph /  24.1 km/h 49 % 0.00 in /  0 mm
19:18 65.0 °F /  18.3 °C 45.9 °F /  7.7 °C 30.05 in /  1017.5 hPa SW 8.7 mph /  14 km/h 11.5 mph /  18.5 km/h 50 % 0.00 in /  0 mm
19:23 64.7 °F /  18.2 °C 45.6 °F /  7.6 °C 30.05 in /  1017.5 hPa SSW 6.7 mph /  10.8 km/h 11.5 mph /  18.5 km/h 50 % 0.00 in /  0 mm
19:28 64.5 °F /  18.1 °C 46.0 °F /  7.8 °C 30.05 in /  1017.5 hPa SSW 8.8 mph /  14.2 km/h 12.0 mph /  19.3 km/h 51 % 0.00 in /  0 mm
19:33 64.2 °F /  17.9 °C 45.7 °F /  7.6 °C 30.05 in /  1017.5 hPa South 6.9 mph /  11.1 km/h 18.4 mph /  29.6 km/h 51 % 0.00 in /  0 mm
19:38 64.0 °F /  17.8 °C 45.5 °F /  7.5 °C 30.05 in /  1017.5 hPa South 7.8 mph /  12.6 km/h 12.7 mph /  20.4 km/h 51 % 0.00 in /  0 mm
19:43 63.8 °F /  17.7 °C 45.8 °F /  7.7 °C 30.05 in /  1017.5 hPa SSW 8.0 mph /  12.9 km/h 17.0 mph /  27.4 km/h 52 % 0.00 in /  0 mm
19:48 63.6 °F /  17.6 °C 45.6 °F /  7.6 °C 30.05 in /  1017.5 hPa South 9.0 mph /  14.5 km/h 10.4 mph /  16.7 km/h 52 % 0.00 in /  0 mm
19:53 63.5 °F /  17.5 °C 45.6 °F /  7.6 °C 30.05 in /  1017.5 hPa SSW 7.5 mph /  12.1 km/h 10.4 mph /  16.7 km/h 52 % 0.00 in /  0 mm
19:58 63.3 °F /  17.4 °C 45.4 °F /  7.4 °C 30.06 in /  1017.8 hPa SSW 7.1 mph /  11.4 km/h 11.5 mph /  18.5 km/h 52 % 0.00 in /  0 mm
20:03 63.2 °F /  17.3 °C 45.8 °F /  7.7 °C 30.06 in /  1017.8 hPa SSE 5.8 mph /  9.3 km/h 10.4 mph /  16.7 km/h 53 % 0.00 in /  0 mm
20:08 63.1 °F /  17.3 °C 45.7 °F /  7.6 °C 30.06 in /  1017.8 hPa SSW 5.2 mph /  8.4 km/h 6.9 mph /  11.1 km/h 53 % 0.00 in /  0 mm
20:13 63.0 °F /  17.2 °C 45.6 °F /  7.6 °C 30.07 in /  1018.2 hPa South 5.1 mph /  8.2 km/h 11.0 mph /  17.7 km/h 53 % 0.00 in /  0 mm
20:18 62.9 °F /  17.2 °C 46.0 °F /  7.8 °C 30.06 in /  1017.8 hPa South 6.1 mph /  9.8 km/h 12.7 mph /  20.4 km/h 54 % 0.00 in /  0 mm
20:23 62.9 °F /  17.2 °C 46.0 °F /  7.8 °C 30.07 in /  1018.2 hPa SSW 8.9 mph /  14.3 km/h 10.0 mph /  16.1 km/h 54 % 0.00 in /  0 mm
20:28 62.9 °F /  17.2 °C 45.5 °F /  7.5 °C 30.07 in /  1018.2 hPa SSW 6.6 mph /  10.6 km/h 11.5 mph /  18.5 km/h 53 % 0.00 in /  0 mm
20:33 62.9 °F /  17.2 °C 46.0 °F /  7.8 °C 30.07 in /  1018.2 hPa SW 5.3 mph /  8.5 km/h 8.1 mph /  13 km/h 54 % 0.00 in /  0 mm
20:38 62.9 °F /  17.2 °C 46.0 °F /  7.8 °C 30.07 in /  1018.2 hPa SSW 6.0 mph /  9.7 km/h 11.0 mph /  17.7 km/h 54 % 0.00 in /  0 mm
20:43 62.9 °F /  17.2 °C 46.0 °F /  7.8 °C 30.07 in /  1018.2 hPa SW 6.8 mph /  10.9 km/h 11.5 mph /  18.5 km/h 54 % 0.00 in /  0 mm
20:48 62.8 °F /  17.1 °C 46.4 °F /  8 °C 30.07 in /  1018.2 hPa SSE 7.7 mph /  12.4 km/h 11.5 mph /  18.5 km/h 55 % 0.00 in /  0 mm
20:53 62.7 °F /  17.1 °C 46.3 °F /  7.9 °C 30.07 in /  1018.2 hPa South 7.2 mph /  11.6 km/h 10.4 mph /  16.7 km/h 55 % 0.00 in /  0 mm
20:58 62.7 °F /  17.1 °C 46.3 °F /  7.9 °C 30.07 in /  1018.2 hPa SSW 6.8 mph /  10.9 km/h 11.5 mph /  18.5 km/h 55 % 0.00 in /  0 mm
21:03 62.6 °F /  17 °C 46.2 °F /  7.9 °C 30.08 in /  1018.5 hPa South 7.1 mph /  11.4 km/h 10.4 mph /  16.7 km/h 55 % 0.00 in /  0 mm
21:08 62.5 °F /  16.9 °C 46.6 °F /  8.1 °C 30.08 in /  1018.5 hPa South 6.0 mph /  9.7 km/h 12.0 mph /  19.3 km/h 56 % 0.00 in /  0 mm
21:13 62.4 °F /  16.9 °C 46.5 °F /  8.1 °C 30.08 in /  1018.5 hPa South 6.9 mph /  11.1 km/h 11.5 mph /  18.5 km/h 56 % 0.00 in /  0 mm
21:18 62.2 °F /  16.8 °C 46.8 °F /  8.2 °C 30.08 in /  1018.5 hPa SSW 5.2 mph /  8.4 km/h 9.0 mph /  14.5 km/h 57 % 0.00 in /  0 mm
21:24 61.9 °F /  16.6 °C 47.0 °F /  8.3 °C 30.08 in /  1018.5 hPa SSW 5.9 mph /  9.5 km/h 11.5 mph /  18.5 km/h 58 % 0.00 in /  0 mm
21:29 61.7 °F /  16.5 °C 46.8 °F /  8.2 °C 30.09 in /  1018.8 hPa South 3.8 mph /  6.1 km/h 5.8 mph /  9.3 km/h 58 % 0.00 in /  0 mm
21:34 61.4 °F /  16.3 °C 46.9 °F /  8.3 °C 30.09 in /  1018.8 hPa SW 5.9 mph /  9.5 km/h 9.2 mph /  14.8 km/h 59 % 0.00 in /  0 mm
21:39 61.3 °F /  16.3 °C 47.3 °F /  8.5 °C 30.09 in /  1018.8 hPa South 4.4 mph /  7.1 km/h 6.9 mph /  11.1 km/h 60 % 0.00 in /  0 mm
21:44 61.1 °F /  16.2 °C 47.1 °F /  8.4 °C 30.09 in /  1018.8 hPa SSW 4.8 mph /  7.7 km/h 6.9 mph /  11.1 km/h 60 % 0.00 in /  0 mm
21:49 61.0 °F /  16.1 °C 47.0 °F /  8.3 °C 30.09 in /  1018.8 hPa SSW 5.5 mph /  8.9 km/h 11.0 mph /  17.7 km/h 60 % 0.00 in /  0 mm
21:54 60.9 °F /  16.1 °C 47.4 °F /  8.6 °C 30.09 in /  1018.8 hPa SSW 5.1 mph /  8.2 km/h 8.1 mph /  13 km/h 61 % 0.00 in /  0 mm
21:59 60.8 °F /  16 °C 47.3 °F /  8.5 °C 30.09 in /  1018.8 hPa SSW 4.6 mph /  7.4 km/h 5.8 mph /  9.3 km/h 61 % 0.00 in /  0 mm
22:04 60.8 °F /  16 °C 47.3 °F /  8.5 °C 30.09 in /  1018.8 hPa SSW 5.8 mph /  9.3 km/h 9.2 mph /  14.8 km/h 61 % 0.00 in /  0 mm
22:09 60.7 °F /  15.9 °C 47.2 °F /  8.4 °C 30.09 in /  1018.8 hPa South 4.6 mph /  7.4 km/h 9.2 mph /  14.8 km/h 61 % 0.00 in /  0 mm
22:14 60.7 °F /  15.9 °C 47.2 °F /  8.4 °C 30.09 in /  1018.8 hPa SSW 4.4 mph /  7.1 km/h 9.2 mph /  14.8 km/h 61 % 0.00 in /  0 mm
22:19 60.6 °F /  15.9 °C 47.5 °F /  8.6 °C 30.09 in /  1018.8 hPa South 5.3 mph /  8.5 km/h 8.1 mph /  13 km/h 62 % 0.00 in /  0 mm
22:24 60.5 °F /  15.8 °C 47.4 °F /  8.6 °C 30.09 in /  1018.8 hPa South 6.3 mph /  10.1 km/h 10.4 mph /  16.7 km/h 62 % 0.00 in /  0 mm
22:29 60.4 °F /  15.8 °C 47.3 °F /  8.5 °C 30.09 in /  1018.8 hPa SSW 7.5 mph /  12.1 km/h 11.5 mph /  18.5 km/h 62 % 0.00 in /  0 mm
22:34 60.3 °F /  15.7 °C 47.2 °F /  8.4 °C 30.09 in /  1018.8 hPa South 5.2 mph /  8.4 km/h 11.5 mph /  18.5 km/h 62 % 0.00 in /  0 mm
22:39 60.2 °F /  15.7 °C 47.1 °F /  8.4 °C 30.09 in /  1018.8 hPa SSW 6.6 mph /  10.6 km/h 11.5 mph /  18.5 km/h 62 % 0.00 in /  0 mm
22:44 60.1 °F /  15.6 °C 47.5 °F /  8.6 °C 30.09 in /  1018.8 hPa SW 6.0 mph /  9.7 km/h 10.4 mph /  16.7 km/h 63 % 0.00 in /  0 mm
22:49 59.9 °F /  15.5 °C 47.3 °F /  8.5 °C 30.09 in /  1018.8 hPa SSW 4.1 mph /  6.6 km/h 5.8 mph /  9.3 km/h 63 % 0.00 in /  0 mm
22:54 59.8 °F /  15.4 °C 47.2 °F /  8.4 °C 30.09 in /  1018.8 hPa South 5.3 mph /  8.5 km/h 8.1 mph /  13 km/h 63 % 0.00 in /  0 mm
23:00 59.5 °F /  15.3 °C 47.3 °F /  8.5 °C 30.09 in /  1018.8 hPa SW 6.3 mph /  10.1 km/h 12.0 mph /  19.3 km/h 64 % 0.00 in /  0 mm
23:05 59.3 °F /  15.2 °C 47.1 °F /  8.4 °C 30.09 in /  1018.8 hPa SSW 4.7 mph /  7.6 km/h 11.5 mph /  18.5 km/h 64 % 0.00 in /  0 mm
23:10 59.2 °F /  15.1 °C 47.4 °F /  8.6 °C 30.09 in /  1018.8 hPa SW 5.0 mph /  8 km/h 8.1 mph /  13 km/h 65 % 0.00 in /  0 mm
23:15 59.0 °F /  15 °C 47.2 °F /  8.4 °C 30.09 in /  1018.8 hPa SW 4.7 mph /  7.6 km/h 10.0 mph /  16.1 km/h 65 % 0.00 in /  0 mm
23:20 58.9 °F /  14.9 °C 47.2 °F /  8.4 °C 30.09 in /  1018.8 hPa SW 6.7 mph /  10.8 km/h 10.4 mph /  16.7 km/h 65 % 0.00 in /  0 mm
23:25 58.7 °F /  14.8 °C 47.4 °F /  8.6 °C 30.10 in /  1019.2 hPa South 6.7 mph /  10.8 km/h 9.2 mph /  14.8 km/h 66 % 0.00 in /  0 mm
23:30 58.6 °F /  14.8 °C 47.3 °F /  8.5 °C 30.09 in /  1018.8 hPa SSW 4.5 mph /  7.2 km/h 8.0 mph /  12.9 km/h 66 % 0.00 in /  0 mm
23:35 58.5 °F /  14.7 °C 47.2 °F /  8.4 °C 30.09 in /  1018.8 hPa South 4.9 mph /  7.9 km/h 8.1 mph /  13 km/h 66 % 0.00 in /  0 mm
23:40 58.4 °F /  14.7 °C 47.5 °F /  8.6 °C 30.10 in /  1019.2 hPa SW 5.7 mph /  9.2 km/h 8.1 mph /  13 km/h 67 % 0.00 in /  0 mm
23:45 58.2 °F /  14.6 °C 47.3 °F /  8.5 °C 30.09 in /  1018.8 hPa SSW 4.7 mph /  7.6 km/h 8.1 mph /  13 km/h 67 % 0.00 in /  0 mm
23:50 58.1 °F /  14.5 °C 47.2 °F /  8.4 °C 30.09 in /  1018.8 hPa SSW 6.8 mph /  10.9 km/h 11.5 mph /  18.5 km/h 67 % 0.00 in /  0 mm
23:55 58.1 °F /  14.5 °C 47.2 °F /  8.4 °C 30.09 in /  1018.8 hPa SW 5.5 mph /  8.9 km/h 8.1 mph /  13 km/h 67 % 0.00 in /  0 mm
Crab Meadow Weather
Compliments of Weather Underground - 3 mb

Script developed by  Jim McMurry - jmcmurry@mwt.net Adapted for the template by  Wim van der Kuil - Leuven-Template.eu

Weather Terms: Freezing Rain/Freezing Drizzle - Rain or drizzle which falls in liquid form and freezes on impact with cold surfaces to form a glaze on the ground and exposed objects.